Terminal Aerodrome Forecast
Issued by NWS

Current Version | Previous Version | Text Only | Print | Product List | Glossary Off
Versions: 1 2 3 4 5 6 7 8 9 10 11 12 13 14 15 16 17 18 19 20 21 22

000
FTUS41 KRLX 171100
TAFCKB
TAF
KCKB 171137Z 1712/1812 00000KT 1/2SM FG VV002
     FM171330 00000KT 3SM BR SCT001
     FM171400 00000KT P6SM FEW050
     FM172000 28004KT P6SM FEW040
     FM180600 00000KT 2SM BR BKN003=

USA.gov is the U.S. government's official web portal to all federal, state and local government web resources and services.